createdAt,value
2017-11-21T00:01:54.198Z,34.00
2017-11-21T00:04:21.680Z,32.10
2017-11-21T00:06:49.951Z,33.10
2017-11-21T00:09:17.413Z,33.10
2017-11-21T00:11:45.665Z,32.00
2017-11-21T00:14:13.130Z,29.97
2017-11-21T00:16:40.638Z,30.60
2017-11-21T00:19:08.100Z,29.83
2017-11-21T00:21:35.632Z,26.40
2017-11-21T00:24:03.155Z,26.80
2017-11-21T00:26:30.720Z,27.33
2017-11-21T00:28:58.257Z,26.27
2017-11-21T00:31:25.722Z,27.00
2017-11-21T00:33:53.193Z,25.60
2017-11-21T00:36:20.651Z,25.30
2017-11-21T00:38:48.133Z,26.90
2017-11-21T00:41:15.601Z,26.47
2017-11-21T00:43:43.128Z,27.60
2017-11-21T00:46:10.698Z,27.10
2017-11-21T00:48:38.945Z,27.93
2017-11-21T00:51:06.518Z,27.50
2017-11-21T00:53:34.020Z,27.60
2017-11-21T00:56:01.508Z,26.67
2017-11-21T00:58:28.960Z,26.70
2017-11-21T01:00:56.444Z,25.67
2017-11-21T01:03:24.689Z,26.33
2017-11-21T01:05:52.188Z,26.60
2017-11-21T01:08:20.419Z,27.00
2017-11-21T01:10:47.895Z,26.50
2017-11-21T01:13:16.868Z,28.43
2017-11-21T01:15:44.331Z,30.03
2017-11-21T01:18:11.810Z,30.37
2017-11-21T01:20:39.281Z,29.10
2017-11-21T01:23:07.512Z,28.03
2017-11-21T01:25:35.024Z,29.40
2017-11-21T01:28:02.520Z,28.77
2017-11-21T01:30:30.017Z,28.83
2017-11-21T01:32:58.332Z,29.90
2017-11-21T01:35:25.808Z,30.10
2017-11-21T01:37:53.272Z,31.37
2017-11-21T01:40:20.752Z,30.43
2017-11-21T01:42:48.229Z,32.90
2017-11-21T01:45:15.732Z,33.23
2017-11-21T01:47:43.198Z,35.57
2017-11-21T01:50:10.680Z,37.80
2017-11-21T01:52:38.144Z,37.23
2017-11-21T01:55:05.625Z,40.63
2017-11-21T01:57:33.085Z,41.57
2017-11-21T02:00:00.659Z,40.87
2017-11-21T02:02:28.134Z,40.60
2017-11-21T02:04:55.604Z,42.20
2017-11-21T02:07:23.088Z,39.30
2017-11-21T02:09:50.554Z,39.97
2017-11-21T02:12:18.796Z,39.10
2017-11-21T02:14:46.255Z,39.10
2017-11-21T02:17:13.740Z,40.30
2017-11-21T02:19:41.964Z,41.27
2017-11-21T02:22:09.444Z,41.80
2017-11-21T02:24:37.064Z,40.63
2017-11-21T02:27:04.589Z,41.03
2017-11-21T02:29:32.836Z,40.20
2017-11-21T02:32:00.320Z,40.30
2017-11-21T02:34:28.545Z,40.70
2017-11-21T02:36:56.023Z,40.70
2017-11-21T02:39:23.501Z,41.10
2017-11-21T02:41:51.832Z,40.30
2017-11-21T02:44:19.284Z,38.80
2017-11-21T02:46:46.776Z,39.10
2017-11-21T02:49:14.244Z,40.20
2017-11-21T02:51:42.515Z,43.37
2017-11-21T02:54:10.005Z,42.33
2017-11-21T02:56:37.479Z,45.83
2017-11-21T02:59:05.001Z,45.10
2017-11-21T03:01:32.510Z,47.63
2017-11-21T03:03:59.999Z,48.00
2017-11-21T03:06:27.480Z,43.00
2017-11-21T03:08:55.724Z,41.90
2017-11-21T03:11:23.184Z,42.27
2017-11-21T03:13:50.796Z,40.60
2017-11-21T03:16:18.277Z,42.50
2017-11-21T03:18:45.740Z,34.50
2017-11-21T03:21:25.148Z,37.80
2017-11-21T03:24:04.717Z,36.57
2017-11-21T03:26:32.200Z,34.40
2017-11-21T03:29:00.432Z,33.67
2017-11-21T03:31:28.080Z,34.07
2017-11-21T03:33:55.556Z,34.00
2017-11-21T03:36:23.019Z,32.27
2017-11-21T03:38:50.499Z,33.63
2017-11-21T03:41:17.960Z,34.10
2017-11-21T03:43:45.447Z,33.10
2017-11-21T03:46:12.917Z,34.83
2017-11-21T03:48:40.478Z,36.50
2017-11-21T03:51:07.952Z,35.00
2017-11-21T03:53:35.410Z,36.93
2017-11-21T03:56:02.949Z,36.70
2017-11-21T03:58:30.407Z,37.17
2017-11-21T04:00:57.890Z,38.40
2017-11-21T04:03:25.368Z,35.90
2017-11-21T04:05:52.823Z,38.07
2017-11-21T04:08:20.284Z,37.03
2017-11-21T04:10:47.767Z,39.00
2017-11-21T04:13:15.248Z,38.90
2017-11-21T04:15:42.711Z,38.80
2017-11-21T04:18:10.187Z,38.37
2017-11-21T04:20:37.670Z,43.03
2017-11-21T04:23:05.904Z,37.47
2017-11-21T04:25:33.392Z,40.50
2017-11-21T04:28:00.888Z,38.37
2017-11-21T04:30:28.343Z,39.13
2017-11-21T04:32:55.863Z,41.40
2017-11-21T04:35:23.332Z,40.50
2017-11-21T04:37:51.560Z,42.80
2017-11-21T04:40:19.040Z,41.70
2017-11-21T04:42:46.611Z,40.90
2017-11-21T04:45:14.092Z,39.00
2017-11-21T04:47:42.344Z,38.17
2017-11-21T04:50:09.929Z,40.60
2017-11-21T04:52:38.160Z,41.53
2017-11-21T04:55:05.645Z,40.40
2017-11-21T04:57:33.896Z,37.63
2017-11-21T05:00:01.377Z,37.30
2017-11-21T05:02:29.614Z,38.60
2017-11-21T05:04:57.095Z,36.73
2017-11-21T05:07:24.560Z,32.93
2017-11-21T05:09:52.076Z,33.20
2017-11-21T05:12:19.564Z,32.40
2017-11-21T05:14:47.024Z,32.97
2017-11-21T05:17:14.581Z,31.70
2017-11-21T05:19:42.084Z,33.53
2017-11-21T05:22:09.561Z,31.93
2017-11-21T05:24:37.061Z,32.60
2017-11-21T05:27:05.299Z,30.83
2017-11-21T05:29:32.782Z,30.60
2017-11-21T05:32:00.265Z,29.90
2017-11-21T05:34:28.508Z,29.80
2017-11-21T05:36:55.973Z,28.30
2017-11-21T05:39:23.462Z,31.93
2017-11-21T05:41:50.942Z,28.73
2017-11-21T05:44:18.420Z,29.20
2017-11-21T05:46:45.893Z,28.03
2017-11-21T05:49:13.379Z,27.23
2017-11-21T05:51:41.627Z,28.47
2017-11-21T05:54:10.608Z,28.20
2017-11-21T05:56:38.083Z,24.97
2017-11-21T05:59:05.553Z,24.30
2017-11-21T06:01:33.783Z,24.50
2017-11-21T06:04:01.364Z,23.07
2017-11-21T06:06:28.841Z,22.80
2017-11-21T06:08:57.103Z,24.07
2017-11-21T06:11:24.567Z,23.00
2017-11-21T06:13:52.815Z,21.10
2017-11-21T06:16:20.283Z,19.20
2017-11-21T06:18:48.195Z,17.90
2017-11-21T06:21:15.652Z,16.17
2017-11-21T06:23:43.167Z,15.97
2017-11-21T06:26:10.648Z,15.70
2017-11-21T06:28:38.881Z,14.03
2017-11-21T06:31:06.359Z,14.93
2017-11-21T06:33:33.820Z,13.53
2017-11-21T06:36:02.068Z,11.77
2017-11-21T06:38:29.536Z,12.40
2017-11-21T06:40:57.056Z,12.97
2017-11-21T06:43:24.527Z,12.60
2017-11-21T06:45:51.989Z,11.70
2017-11-21T06:48:19.473Z,10.13
2017-11-21T06:50:46.936Z,10.20
2017-11-21T06:53:15.259Z,9.10
2017-11-21T06:55:42.725Z,10.10
2017-11-21T06:58:10.203Z,8.80
2017-11-21T07:00:37.664Z,9.57
2017-11-21T07:03:05.895Z,8.77
2017-11-21T07:05:33.368Z,7.53
2017-11-21T07:08:00.836Z,7.60
2017-11-21T07:10:28.321Z,8.83
2017-11-21T07:12:55.879Z,8.53
2017-11-21T07:15:24.116Z,7.57
2017-11-21T07:17:51.593Z,7.83
2017-11-21T07:20:19.061Z,8.00
2017-11-21T07:22:46.540Z,8.70
2017-11-21T07:25:14.780Z,9.30
2017-11-21T07:27:42.240Z,9.13
2017-11-21T07:30:11.315Z,10.30
2017-11-21T07:32:38.793Z,11.53
2017-11-21T07:35:06.258Z,11.97
2017-11-21T07:37:33.740Z,12.50
2017-11-21T07:40:01.969Z,12.60
2017-11-21T07:42:29.457Z,13.90
2017-11-21T07:44:56.911Z,13.77
2017-11-21T07:47:25.138Z,14.77
2017-11-21T07:49:52.629Z,14.20
2017-11-21T07:52:20.092Z,15.90
2017-11-21T07:54:47.607Z,15.63
2017-11-21T07:57:15.071Z,17.90
2017-11-21T07:59:42.552Z,18.33
2017-11-21T08:02:10.026Z,19.00
2017-11-21T08:04:37.575Z,17.97
2017-11-21T08:07:05.052Z,18.67
2017-11-21T08:09:33.292Z,15.87
2017-11-21T08:12:00.770Z,17.57
2017-11-21T08:14:29.024Z,18.30
2017-11-21T08:16:56.496Z,16.60
2017-11-21T08:19:23.956Z,18.47
2017-11-21T08:21:52.948Z,17.03
2017-11-21T08:24:20.410Z,17.27
2017-11-21T08:26:48.671Z,18.10
2017-11-21T08:29:16.138Z,18.23
2017-11-21T08:31:43.597Z,18.90
2017-11-21T08:34:11.079Z,18.90
2017-11-21T08:36:38.543Z,20.60
2017-11-21T08:39:06.023Z,18.03
2017-11-21T08:41:33.497Z,20.93
2017-11-21T08:44:00.983Z,20.47
2017-11-21T08:46:29.212Z,19.30
2017-11-21T08:48:56.683Z,20.67
2017-11-21T08:51:24.161Z,20.63
2017-11-21T08:53:51.644Z,20.20
2017-11-21T08:56:19.895Z,21.40
2017-11-21T08:58:47.348Z,23.50
2017-11-21T09:01:14.832Z,22.10
2017-11-21T09:03:43.076Z,21.13
2017-11-21T09:06:10.640Z,23.27
2017-11-21T09:08:38.121Z,23.37
2017-11-21T09:11:06.371Z,25.10
2017-11-21T09:13:33.832Z,25.40
2017-11-21T09:16:01.325Z,26.43
2017-11-21T09:18:28.792Z,25.10
2017-11-21T09:20:56.286Z,26.67
2017-11-21T09:23:23.764Z,25.60
2017-11-21T09:25:51.991Z,25.00
2017-11-21T09:28:19.448Z,26.27
2017-11-21T09:30:46.922Z,24.07
2017-11-21T09:33:15.257Z,23.83
2017-11-21T09:35:42.739Z,22.60
2017-11-21T09:38:10.204Z,23.47
2017-11-21T09:40:37.679Z,25.60
2017-11-21T09:43:05.169Z,23.83
2017-11-21T09:45:33.396Z,24.57
2017-11-21T09:48:00.882Z,25.67
2017-11-21T09:50:28.347Z,23.57
2017-11-21T09:52:56.595Z,22.50
2017-11-21T09:55:24.075Z,23.07
2017-11-21T09:57:52.321Z,25.03
2017-11-21T10:00:19.777Z,24.43
2017-11-21T10:02:47.267Z,22.77
2017-11-21T10:05:15.492Z,24.83
2017-11-21T10:07:42.971Z,24.63
2017-11-21T10:10:10.432Z,22.93
2017-11-21T10:12:37.921Z,24.17
2017-11-21T10:15:06.148Z,24.90
2017-11-21T10:17:33.635Z,23.90
2017-11-21T10:20:01.890Z,25.53
2017-11-21T10:22:29.362Z,22.70
2017-11-21T10:24:56.841Z,23.47
2017-11-21T10:27:25.087Z,23.50
2017-11-21T10:29:52.567Z,22.10
2017-11-21T10:32:20.791Z,24.40
2017-11-21T10:34:48.269Z,21.87
2017-11-21T10:37:15.733Z,23.00
2017-11-21T10:39:43.985Z,23.30
2017-11-21T10:42:11.447Z,20.20
2017-11-21T10:44:38.946Z,23.87
2017-11-21T10:47:07.168Z,20.53
2017-11-21T10:49:34.640Z,21.40
2017-11-21T10:52:02.121Z,21.53
2017-11-21T10:54:29.588Z,23.67
2017-11-21T10:56:57.823Z,22.93
2017-11-21T10:59:25.287Z,26.07
2017-11-21T11:01:54.272Z,26.87
2017-11-21T11:04:21.739Z,24.17
2017-11-21T11:06:49.208Z,25.67
2017-11-21T11:09:16.760Z,22.30
2017-11-21T11:11:44.215Z,25.40
2017-11-21T11:14:11.679Z,25.00
2017-11-21T11:16:39.926Z,28.20
2017-11-21T11:19:07.399Z,26.83
2017-11-21T11:21:35.640Z,28.57
2017-11-21T11:24:03.138Z,27.50
2017-11-21T11:26:30.591Z,30.03
2017-11-21T11:28:58.074Z,31.90
2017-11-21T11:31:26.320Z,28.93
2017-11-21T11:33:53.776Z,31.07
2017-11-21T11:36:21.252Z,31.43
2017-11-21T11:38:49.477Z,28.80
2017-11-21T11:41:16.951Z,30.47
2017-11-21T11:43:44.439Z,30.50
2017-11-21T11:46:12.681Z,29.33
2017-11-21T11:48:40.140Z,28.93
2017-11-21T11:51:07.623Z,27.13
2017-11-21T11:53:35.853Z,27.70
2017-11-21T11:56:03.321Z,24.77
2017-11-21T11:58:30.798Z,25.70
2017-11-21T12:00:58.280Z,23.60
2017-11-21T12:03:26.521Z,25.00
2017-11-21T12:05:53.977Z,24.00
2017-11-21T12:08:21.464Z,25.93
2017-11-21T12:10:49.346Z,27.93
2017-11-21T12:13:16.825Z,26.60
2017-11-21T12:15:44.308Z,27.80
2017-11-21T12:18:11.781Z,26.27
2017-11-21T12:20:39.260Z,29.97
2017-11-21T12:23:07.495Z,30.23
2017-11-21T12:25:34.971Z,29.40
2017-11-21T12:28:02.452Z,31.00
2017-11-21T12:30:29.934Z,32.40
2017-11-21T12:32:57.420Z,30.30
2017-11-21T12:35:24.883Z,30.17
2017-11-21T12:37:52.371Z,32.27
2017-11-21T12:40:20.601Z,28.13
2017-11-21T12:42:48.085Z,29.80
2017-11-21T12:45:17.065Z,28.30
2017-11-21T12:47:44.532Z,29.50
2017-11-21T12:50:12.025Z,25.43
2017-11-21T12:52:39.481Z,28.73
2017-11-21T12:55:06.940Z,26.57
2017-11-21T12:57:34.424Z,22.67
2017-11-21T13:00:01.900Z,22.97
2017-11-21T13:02:29.472Z,21.77
2017-11-21T13:04:56.935Z,22.60
2017-11-21T13:07:25.189Z,22.77
2017-11-21T13:09:52.650Z,18.73
2017-11-21T13:12:20.897Z,16.97
2017-11-21T13:14:48.447Z,18.20
2017-11-21T13:17:15.929Z,19.40
2017-11-21T13:19:43.402Z,18.40
2017-11-21T13:22:10.875Z,20.17
2017-11-21T13:24:39.109Z,16.97
2017-11-21T13:27:06.575Z,16.67
2017-11-21T13:29:34.056Z,18.17
2017-11-21T13:32:01.515Z,19.20
2017-11-21T13:34:29.845Z,17.77
2017-11-21T13:36:57.313Z,16.40
2017-11-21T13:39:24.797Z,16.50
2017-11-21T13:41:52.261Z,17.17
2017-11-21T13:44:19.740Z,17.27
2017-11-21T13:46:47.233Z,18.70
2017-11-21T13:49:14.702Z,18.57
2017-11-21T13:51:42.186Z,17.37
2017-11-21T13:54:09.666Z,16.13
2017-11-21T13:56:37.912Z,20.07
2017-11-21T13:59:05.382Z,18.50
2017-11-21T14:01:32.850Z,18.10
2017-11-21T14:04:01.093Z,18.50
2017-11-21T14:06:28.565Z,18.10
2017-11-21T14:08:56.056Z,17.27
2017-11-21T14:11:23.524Z,17.77
2017-11-21T14:13:51.016Z,18.27
2017-11-21T14:16:18.472Z,18.93
2017-11-21T14:18:45.953Z,18.83
2017-11-21T14:21:14.200Z,20.17
2017-11-21T14:23:41.663Z,17.83
2017-11-21T14:26:09.917Z,19.50
2017-11-21T14:28:37.391Z,17.47
2017-11-21T14:31:04.866Z,18.20
2017-11-21T14:33:32.347Z,18.87
2017-11-21T14:36:00.578Z,19.13
2017-11-21T14:38:28.050Z,17.27
2017-11-21T14:40:55.515Z,18.23
2017-11-21T14:43:23.755Z,18.20
2017-11-21T14:45:51.238Z,18.40
2017-11-21T14:48:18.698Z,19.23
2017-11-21T14:50:46.180Z,18.60
2017-11-21T14:53:14.137Z,18.47
2017-11-21T14:55:42.383Z,16.70
2017-11-21T14:58:09.872Z,18.40
2017-11-21T15:00:38.116Z,17.27
2017-11-21T15:03:07.091Z,18.20
2017-11-21T15:05:34.632Z,17.10
2017-11-21T15:08:02.125Z,14.50
2017-11-21T15:10:30.378Z,17.10
2017-11-21T15:12:57.840Z,18.17
2017-11-21T15:15:25.332Z,16.33
2017-11-21T15:17:52.838Z,15.77
2017-11-21T15:20:20.299Z,15.07
2017-11-21T15:22:47.775Z,15.33
2017-11-21T15:25:15.244Z,13.90
2017-11-21T15:27:42.737Z,14.73
2017-11-21T15:30:10.221Z,15.30
2017-11-21T15:32:37.713Z,15.80
2017-11-21T15:35:05.183Z,14.30
2017-11-21T15:37:32.668Z,12.57
2017-11-21T15:40:00.154Z,14.50
2017-11-21T15:42:27.625Z,14.70
2017-11-21T15:44:55.108Z,14.60
2017-11-21T15:47:22.571Z,13.47
2017-11-21T15:49:50.068Z,14.40
2017-11-21T15:52:17.532Z,14.23
2017-11-21T15:54:44.997Z,14.47
2017-11-21T15:57:12.472Z,16.70
2017-11-21T15:59:39.937Z,14.87
2017-11-21T16:02:08.164Z,14.30
2017-11-21T16:04:35.651Z,14.10
2017-11-21T16:07:03.147Z,12.10
2017-11-21T16:09:31.384Z,13.50
2017-11-21T16:11:58.859Z,14.10
2017-11-21T16:14:27.827Z,13.40
2017-11-21T16:16:55.320Z,13.63
2017-11-21T16:19:23.583Z,13.20
2017-11-21T16:21:51.041Z,14.37
2017-11-21T16:24:18.528Z,14.53
2017-11-21T16:26:46.752Z,13.40
2017-11-21T16:29:14.217Z,15.33
2017-11-21T16:31:41.740Z,14.13
2017-11-21T16:34:09.223Z,14.70
2017-11-21T16:36:36.711Z,14.63
2017-11-21T16:39:05.193Z,13.10
2017-11-21T16:41:32.666Z,13.90
2017-11-21T16:44:00.147Z,13.30
2017-11-21T16:46:27.619Z,13.70
2017-11-21T16:48:55.093Z,15.00
2017-11-21T16:51:22.571Z,13.80
2017-11-21T16:53:50.796Z,13.80
2017-11-21T16:56:18.275Z,15.07
2017-11-21T16:58:45.756Z,14.40
2017-11-21T17:01:13.235Z,14.30
2017-11-21T17:03:40.695Z,14.50
2017-11-21T17:06:08.177Z,13.30
2017-11-21T17:08:35.650Z,15.00
2017-11-21T17:11:03.143Z,14.37
2017-11-21T17:13:30.619Z,16.70
2017-11-21T17:15:58.081Z,19.83
2017-11-21T17:18:25.560Z,23.67
2017-11-21T17:20:53.032Z,18.30
2017-11-21T17:23:20.786Z,29.80
2017-11-21T17:25:48.291Z,16.23
2017-11-21T17:28:15.764Z,15.83
2017-11-21T17:30:43.239Z,13.53
2017-11-21T17:33:10.701Z,14.03
2017-11-21T17:35:38.188Z,12.57
2017-11-21T17:38:05.648Z,12.20
2017-11-21T17:40:33.109Z,13.50
2017-11-21T17:43:00.594Z,13.77
2017-11-21T17:45:28.835Z,13.40
2017-11-21T17:47:57.092Z,14.83
2017-11-21T17:50:24.573Z,14.70
2017-11-21T17:52:52.088Z,14.03
2017-11-21T17:55:19.562Z,12.57
2017-11-21T17:57:47.048Z,13.63
2017-11-21T18:00:14.506Z,13.50
2017-11-21T18:02:42.121Z,13.77
2017-11-21T18:05:09.580Z,13.63
2017-11-21T18:07:37.041Z,13.20
2017-11-21T18:10:04.527Z,14.37
2017-11-21T18:12:31.990Z,12.97
2017-11-21T18:15:00.257Z,14.17
2017-11-21T18:17:27.726Z,13.80
2017-11-21T18:19:55.979Z,13.60
2017-11-21T18:22:23.440Z,14.37
2017-11-21T18:24:50.902Z,15.13
2017-11-21T18:27:18.375Z,15.00
2017-11-21T18:29:47.287Z,14.33
2017-11-21T18:32:15.588Z,14.80
2017-11-21T18:34:43.081Z,15.30
2017-11-21T18:37:10.540Z,20.40
2017-11-21T18:39:38.059Z,18.43
2017-11-21T18:42:05.537Z,16.87
2017-11-21T18:44:33.052Z,19.27
2017-11-21T18:47:00.516Z,16.30
2017-11-21T18:49:28.000Z,15.97
2017-11-21T18:51:55.538Z,16.63
2017-11-21T18:54:23.011Z,16.60
2017-11-21T18:56:54.350Z,16.30
2017-11-21T18:59:23.765Z,15.30
2017-11-21T19:01:51.800Z,16.80
2017-11-21T19:04:20.032Z,16.33
2017-11-21T19:06:47.547Z,16.40
2017-11-21T19:09:15.060Z,16.90
2017-11-21T19:11:42.536Z,15.97
2017-11-21T19:14:10.783Z,16.20
2017-11-21T19:16:38.277Z,15.87
2017-11-21T19:19:06.529Z,17.13
2017-11-21T19:21:35.514Z,16.53
2017-11-21T19:24:04.517Z,34.77
2017-11-21T19:26:32.015Z,18.70
2017-11-21T19:29:01.967Z,17.17
2017-11-21T19:31:30.268Z,22.40
2017-11-21T19:33:58.587Z,25.73
2017-11-21T19:36:26.029Z,19.60
2017-11-21T19:38:53.503Z,18.33
2017-11-21T19:41:21.016Z,20.00
2017-11-21T19:43:49.260Z,17.63
2017-11-21T19:46:16.732Z,15.80
2017-11-21T19:48:44.216Z,19.73
2017-11-21T19:51:12.480Z,16.07
2017-11-21T19:53:40.720Z,12.77
2017-11-21T19:56:08.209Z,13.50
2017-11-21T19:58:36.433Z,17.60
2017-11-21T20:01:03.920Z,17.40
2017-11-21T20:03:31.370Z,16.93
2017-11-21T20:05:58.859Z,15.93
2017-11-21T20:08:27.324Z,17.57
2017-11-21T20:10:54.790Z,17.83
2017-11-21T20:13:23.049Z,17.73
2017-11-21T20:15:50.511Z,17.17
2017-11-21T20:18:17.992Z,16.67
2017-11-21T20:20:46.291Z,16.30
2017-11-21T20:23:13.802Z,19.00
2017-11-21T20:25:42.800Z,19.03
2017-11-21T20:28:10.273Z,17.57
2017-11-21T20:30:38.730Z,19.27
2017-11-21T20:33:06.252Z,19.20
2017-11-21T20:35:35.481Z,20.93
2017-11-21T20:38:03.356Z,16.80
2017-11-21T20:40:30.861Z,20.00
2017-11-21T20:42:58.320Z,18.50
2017-11-21T20:45:25.841Z,18.50
2017-11-21T20:47:54.073Z,17.83
2017-11-21T20:50:21.532Z,18.17
2017-11-21T20:52:49.123Z,16.80
2017-11-21T20:55:17.376Z,17.87
2017-11-21T20:57:44.916Z,18.60
2017-11-21T21:00:13.331Z,18.30
2017-11-21T21:02:40.812Z,15.63
2017-11-21T21:05:08.279Z,16.63
2017-11-21T21:07:35.758Z,16.47
2017-11-21T21:10:03.240Z,16.93
2017-11-21T21:12:30.709Z,16.40
2017-11-21T21:14:58.196Z,17.50
2017-11-21T21:17:25.679Z,16.50
2017-11-21T21:19:53.148Z,17.10
2017-11-21T21:22:20.635Z,15.63
2017-11-21T21:24:48.119Z,14.83
2017-11-21T21:27:27.599Z,15.20
2017-11-21T21:29:55.070Z,9.80
2017-11-21T21:32:22.543Z,15.77
2017-11-21T21:34:50.023Z,13.67
2017-11-21T21:37:18.248Z,13.80
2017-11-21T21:39:45.719Z,15.07
2017-11-21T21:42:13.190Z,14.70
2017-11-21T21:44:40.692Z,14.60
2017-11-21T21:47:08.159Z,15.60
2017-11-21T21:49:35.619Z,15.73
2017-11-21T21:52:03.263Z,14.43
2017-11-21T21:54:30.728Z,14.93
2017-11-21T21:56:58.199Z,11.80
2017-11-21T21:59:25.665Z,14.53
2017-11-21T22:01:53.164Z,13.73
2017-11-21T22:04:21.390Z,15.17
2017-11-21T22:06:48.852Z,13.23
2017-11-21T22:09:16.340Z,11.17
2017-11-21T22:11:44.561Z,14.17
2017-11-21T22:14:12.032Z,16.03
2017-11-21T22:16:39.664Z,16.57
2017-11-21T22:19:07.150Z,15.40
2017-11-21T22:21:34.607Z,14.50
2017-11-21T22:24:02.104Z,15.67
2017-11-21T22:26:29.575Z,15.60
2017-11-21T22:28:57.046Z,14.67
2017-11-21T22:31:24.507Z,14.90
2017-11-21T22:33:52.022Z,15.37
2017-11-21T22:36:19.492Z,15.33
2017-11-21T22:38:47.736Z,15.40
2017-11-21T22:41:16.798Z,16.10
2017-11-21T22:43:44.274Z,14.30
2017-11-21T22:46:11.748Z,14.53
2017-11-21T22:48:39.252Z,13.50
2017-11-21T22:51:06.723Z,13.50
2017-11-21T22:53:34.189Z,16.77
2017-11-21T22:56:01.647Z,16.23
2017-11-21T22:58:29.127Z,15.10
2017-11-21T23:00:56.679Z,14.83
2017-11-21T23:03:24.140Z,15.37
2017-11-21T23:05:51.653Z,17.33
2017-11-21T23:08:19.103Z,15.80
2017-11-21T23:10:46.589Z,15.67
2017-11-21T23:13:14.050Z,15.20
2017-11-21T23:15:41.512Z,14.53
2017-11-21T23:18:08.993Z,14.20
2017-11-21T23:20:36.457Z,14.97
2017-11-21T23:23:04.704Z,13.37
2017-11-21T23:25:32.171Z,14.73
2017-11-21T23:27:59.640Z,9.80
2017-11-21T23:30:27.110Z,13.67
2017-11-21T23:32:55.353Z,13.60
2017-11-21T23:35:22.810Z,12.90
2017-11-21T23:37:50.301Z,13.40
2017-11-21T23:40:18.540Z,12.40
2017-11-21T23:42:46.004Z,12.93
2017-11-21T23:45:14.993Z,12.30
2017-11-21T23:47:43.265Z,12.73
2017-11-21T23:50:10.728Z,12.33
2017-11-21T23:52:38.985Z,11.70
2017-11-21T23:55:06.448Z,12.43
2017-11-21T23:57:34.265Z,11.90
